Agia Varvara — SX4706 — position and weather

sailwx.info

Track history (hours):
 
Tides and Currents Weather Stations Pressure Air Temp Water Temp Dewpoint Dewpoint Depression Visibility Wind Speed Wind Dir Waves Ship Positions

Agia Varvara

Last reported at 2015-Sep-01 11:34 UTC. Time now 2015-Sep-01 18:18 UTC.
Position N 37°58' E 023°33'.

Length 88 m; draft 1.5 m.

Type: Passenger vessel. MMSI: 237358800.

Date/timePositionNaut miles runAvg speedWind from/ knotsBaromVisibWave heightAir tempDewpointWater temp
2015-Sep-01 11:34N 37°58' E 023°33'0 0.2
2015-Sep-01 10:33N 37°58' E 023°33'1 1.2
2015-Sep-01 09:33N 37°58' E 023°32'1 1.3
2015-Sep-01 08:34N 37°58' E 023°33'0 0.1
2015-Sep-01 07:33N 37°58' E 023°33'1 1.2
2015-Sep-01 06:33N 37°58' E 023°32'1 1.2
2015-Sep-01 05:33N 37°58' E 023°33'0 0.1
2015-Sep-01 04:34N 37°58' E 023°33'1 1.2
2015-Sep-01 03:34N 37°58' E 023°32'1 0.1
2015-Aug-31 18:33N 37°58' E 023°33'1 1.2
2015-Aug-31 17:33N 37°58' E 023°32'1 1.3
2015-Aug-31 16:34N 37°58' E 023°33'0 0.2
2015-Aug-31 15:33N 37°58' E 023°33'1 1.1
2015-Aug-31 14:33N 37°58' E 023°32'1 1.2
2015-Aug-31 13:33N 37°58' E 023°33'0 0.2
2015-Aug-31 12:33N 37°58' E 023°33'1 1.2
2015-Aug-31 11:33N 37°58' E 023°32'1 1.0
2015-Aug-31 10:33N 37°58' E 023°33'1 0.0
2015-Aug-30 05:14N 37°58' E 023°32'1 2.1
2015-Aug-30 04:33N 37°58' E 023°33'1 0.0
2015-Aug-28 21:19N 37°58' E 023°32'1 1.4
2015-Aug-28 20:33N 37°58' E 023°33'0 0.0
2015-Aug-28 19:33N 37°58' E 023°33'1 1.2
2015-Aug-28 18:34N 37°58' E 023°32'0 0.0
2015-Aug-28 12:33N 37°58' E 023°32'1 1.2
2015-Aug-28 11:33N 37°58' E 023°33'1 1.2
2015-Aug-28 10:33N 37°58' E 023°32'0 0.2
2015-Aug-28 09:33N 37°58' E 023°32'1 1.1
2015-Aug-28 08:33N 37°58' E 023°33'1 1.2
2015-Aug-28 07:33N 37°58' E 023°32'0 0.2
2015-Aug-28 06:33N 37°58' E 023°32'1 1.2
2015-Aug-28 05:33N 37°58' E 023°33'1 1.3
2015-Aug-28 04:33N 37°58' E 023°32'0 0.2
2015-Aug-28 03:33N 37°58' E 023°32'1 0.1
2015-Aug-27 18:33N 37°58' E 023°33'1 1.3
2015-Aug-27 17:33N 37°58' E 023°32'0 0.1
2015-Aug-27 16:33N 37°58' E 023°32'1 1.2
2015-Aug-27 15:33N 37°58' E 023°33'  
2015-Aug-23 19:24N 37°58' E 023°32'1 0.7
2015-Aug-23 18:34N 37°58' E 023°32'0 0.0
2015-Aug-23 17:33N 37°58' E 023°32'0 0.5
2015-Aug-23 16:33N 37°58' E 023°32'0 0.2
2015-Aug-23 15:34N 37°58' E 023°32'0 0.0
2015-Aug-23 05:18N 37°58' E 023°32'0 0.3
2015-Aug-23 04:33N 37°58' E 023°32'0 0.1
2015-Aug-23 00:18N 37°58' E 023°32'1 1.6
2015-Aug-22 23:33N 37°58' E 023°33'1 1.2
2015-Aug-22 22:33N 37°58' E 023°32'1 0.5
2015-Aug-22 21:33N 37°58' E 023°32'1 0.5
2015-Aug-22 20:33N 37°58' E 023°32'0 0.0
2015-Aug-22 13:08N 37°58' E 023°32'1 2.0
2015-Aug-22 12:34N 37°58' E 023°33'  
Track history (hours):
 
Tides and Currents Weather Stations Pressure Air Temp Water Temp Dewpoint Dewpoint Depression Visibility Wind Speed Wind Dir Waves Ship Positions

Agia Varvara

Last reported at 2015-Sep-01 11:34 UTC. Time now 2015-Sep-01 18:18 UTC.
Position N 37°58' E 023°33'.

Length 88 m; draft 1.5 m.

Type: Passenger vessel. MMSI: 237358800.

Date/timePositionNaut miles runAvg speedWind from/ knotsBaromVisibWave heightAir tempDewpointWater temp
2015-Sep-01 11:34N 37°58' E 023°33'0 0.2
2015-Sep-01 10:33N 37°58' E 023°33'1 1.2
2015-Sep-01 09:33N 37°58' E 023°32'1 1.3
2015-Sep-01 08:34N 37°58' E 023°33'0 0.1
2015-Sep-01 07:33N 37°58' E 023°33'1 1.2
2015-Sep-01 06:33N 37°58' E 023°32'1 1.2
2015-Sep-01 05:33N 37°58' E 023°33'0 0.1
2015-Sep-01 04:34N 37°58' E 023°33'1 1.2
2015-Sep-01 03:34N 37°58' E 023°32'1 0.1
2015-Aug-31 18:33N 37°58' E 023°33'1 1.2
2015-Aug-31 17:33N 37°58' E 023°32'1 1.3
2015-Aug-31 16:34N 37°58' E 023°33'0 0.2
2015-Aug-31 15:33N 37°58' E 023°33'1 1.1
2015-Aug-31 14:33N 37°58' E 023°32'1 1.2
2015-Aug-31 13:33N 37°58' E 023°33'0 0.2
2015-Aug-31 12:33N 37°58' E 023°33'1 1.2
2015-Aug-31 11:33N 37°58' E 023°32'1 1.0
2015-Aug-31 10:33N 37°58' E 023°33'1 0.0
2015-Aug-30 05:14N 37°58' E 023°32'1 2.1
2015-Aug-30 04:33N 37°58' E 023°33'1 0.0
2015-Aug-28 21:19N 37°58' E 023°32'1 1.4
2015-Aug-28 20:33N 37°58' E 023°33'0 0.0
2015-Aug-28 19:33N 37°58' E 023°33'1 1.2
2015-Aug-28 18:34N 37°58' E 023°32'0 0.0
2015-Aug-28 12:33N 37°58' E 023°32'1 1.2
2015-Aug-28 11:33N 37°58' E 023°33'1 1.2
2015-Aug-28 10:33N 37°58' E 023°32'0 0.2
2015-Aug-28 09:33N 37°58' E 023°32'1 1.1
2015-Aug-28 08:33N 37°58' E 023°33'1 1.2
2015-Aug-28 07:33N 37°58' E 023°32'0 0.2
2015-Aug-28 06:33N 37°58' E 023°32'1 1.2
2015-Aug-28 05:33N 37°58' E 023°33'1 1.3
2015-Aug-28 04:33N 37°58' E 023°32'0 0.2
2015-Aug-28 03:33N 37°58' E 023°32'1 0.1
2015-Aug-27 18:33N 37°58' E 023°33'1 1.3
2015-Aug-27 17:33N 37°58' E 023°32'0 0.1
2015-Aug-27 16:33N 37°58' E 023°32'1 1.2
2015-Aug-27 15:33N 37°58' E 023°33'  
2015-Aug-23 19:24N 37°58' E 023°32'1 0.7
2015-Aug-23 18:34N 37°58' E 023°32'0 0.0
2015-Aug-23 17:33N 37°58' E 023°32'0 0.5
2015-Aug-23 16:33N 37°58' E 023°32'0 0.2
2015-Aug-23 15:34N 37°58' E 023°32'0 0.0
2015-Aug-23 05:18N 37°58' E 023°32'0 0.3
2015-Aug-23 04:33N 37°58' E 023°32'0 0.1
2015-Aug-23 00:18N 37°58' E 023°32'1 1.6
2015-Aug-22 23:33N 37°58' E 023°33'1 1.2
2015-Aug-22 22:33N 37°58' E 023°32'1 0.5
2015-Aug-22 21:33N 37°58' E 023°32'1 0.5
2015-Aug-22 20:33N 37°58' E 023°32'0 0.0
2015-Aug-22 13:08N 37°58' E 023°32'1 2.0
2015-Aug-22 12:34N 37°58' E 023°33'  

Dump ship's entire track history